| time (UTC) | temp F | wind direction | speed knots | gust knots | rain 1hr in | rain 24hr in | rain mn in | humidity % | barometer mb |
| 20260503223004 | 86 | 332 | 4.3 | 0.0 | 0.00 | 0.00 | 0.00 | 32 | 1007.0 |
| 20260503221607 | 85 | 311 | 5.2 | 0.0 | 0.00 | 0.00 | 0.00 | 34 | 1007.1 |
| 20260503220019 | 84 | 347 | 6.1 | 0.0 | 0.00 | 0.00 | 0.00 | 37 | 1007.4 |
| 20260503214551 | 84 | 330 | 6.1 | 0.0 | 0.00 | 0.00 | 0.00 | 36 | 1007.6 |
| 20260503213030 | 83 | 334 | 5.2 | 0.0 | 0.00 | 0.00 | 0.00 | 40 | 1007.7 |
| 20260503211501 | 83 | 11 | 5.2 | 0.0 | 0.00 | 0.00 | 0.00 | 38 | 1008.0 |
| 20260503210018 | 83 | 333 | 4.3 | 0.0 | 0.00 | 0.00 | 0.00 | 41 | 1008.2 |
| 20260503204540 | 82 | 317 | 5.2 | 0.0 | 0.00 | 0.00 | 0.00 | 47 | 1008.3 |
| 20260503203039 | 81 | 289 | 6.1 | 0.0 | 0.00 | 0.00 | 0.00 | 51 | 1008.6 |
| 20260503201511 | 80 | 338 | 4.3 | 0.0 | 0.00 | 0.00 | 0.00 | 50 | 1008.7 |
| 20260503200039 | 78 | 306 | 5.2 | 0.0 | 0.00 | 0.00 | 0.00 | 52 | 1009.0 |
| 20260503194514 | 77 | 355 | 6.1 | 0.0 | 0.00 | 0.00 | 0.00 | 53 | 1009.2 |
| 20260503193049 | 76 | 311 | 6.1 | 0.0 | 0.00 | 0.00 | 0.00 | 52 | 1009.3 |
| 20260503191603 | 75 | 342 | 6.1 | 0.0 | 0.00 | 0.00 | 0.00 | 55 | 1009.6 |
| 20260503190017 | 74 | 327 | 6.1 | 0.0 | 0.00 | 0.00 | 0.00 | 57 | 1009.7 |
| 20260503184558 | 74 | 331 | 5.2 | 0.0 | 0.00 | 0.00 | 0.00 | 57 | 1009.9 |
| 20260503183050 | 73 | 348 | 6.1 | 0.0 | 0.00 | 0.00 | 0.00 | 59 | 1009.9 |
| 20260503181545 | 72 | 19 | 7.0 | 0.0 | 0.00 | 0.00 | 0.00 | 58 | 1009.9 |
| 20260503180042 | 72 | 321 | 6.1 | 0.0 | 0.00 | 0.00 | 0.00 | 57 | 1010.0 |
| 20260503174604 | 71 | 315 | 5.2 | 0.0 | 0.00 | 0.00 | 0.00 | 57 | 1010.2 |
| 20260503173027 | 69 | 355 | 6.1 | 0.0 | 0.00 | 0.00 | 0.00 | 57 | 1010.3 |
| 20260503171544 | 69 | 341 | 5.2 | 0.0 | 0.00 | 0.00 | 0.00 | 57 | 1010.4 |
| 20260503160106 | 62 | 15 | 5.2 | 0.0 | 0.00 | 0.00 | 0.00 | 72 | 1010.6 |
| 20260503081540 | 60 | 351 | 2.6 | 0.0 | 0.00 | 0.00 | 0.00 | 74 | 1011.1 |
| 20260503071533 | 59 | 28 | 3.5 | 0.0 | 0.00 | 0.00 | 0.00 | 78 | 1011.3 |
| 20260503054602 | 64 | 360 | 4.3 | 0.0 | 0.00 | 0.00 | 0.00 | 72 | 1011.3 |
| 20260503053038 | 64 | 5 | 4.3 | 0.0 | 0.00 | 0.00 | 0.00 | 71 | 1011.4 |
| 20260503051548 | 65 | 338 | 4.3 | 0.0 | 0.00 | 0.00 | 0.00 | 71 | 1011.3 |
| 20260503050052 | 66 | 360 | 4.3 | 0.0 | 0.00 | 0.00 | 0.00 | 69 | 1011.3 |
| 20260503044529 | 64 | 350 | 1.7 | 0.0 | 0.00 | 0.00 | 0.00 | 74 | 1011.3 |
| 20260503043043 | 65 | 5 | 1.7 | 0.0 | 0.00 | 0.00 | 0.00 | 73 | 1011.1 |
| 20260503041543 | 64 | 18 | 0.9 | 0.0 | 0.00 | 0.00 | 0.00 | 73 | 1011.0 |
| 20260503040050 | 64 | 24 | 1.7 | 0.0 | 0.00 | 0.00 | 0.00 | 73 | 1010.8 |
| 20260503034526 | 66 | 5 | 0.0 | 0.0 | 0.00 | 0.00 | 0.00 | 70 | 1010.3 |
| 20260503033059 | 68 | 44 | 0.9 | 0.0 | 0.00 | 0.00 | 0.00 | 68 | 1010.0 |
| 20260503031508 | 70 | 13 | 1.7 | 0.0 | 0.00 | 0.00 | 0.00 | 66 | 1009.6 |
| 20260503030024 | 70 | 25 | 2.6 | 0.0 | 0.00 | 0.00 | 0.00 | 66 | 1009.2 |
| 20260503024536 | 71 | 336 | 4.3 | 0.0 | 0.00 | 0.00 | 0.00 | 64 | 1009.1 |
| 20260503023008 | 72 | 309 | 4.3 | 0.0 | 0.00 | 0.00 | 0.00 | 62 | 1009.1 |
| 20260503021533 | 73 | 314 | 4.3 | 0.0 | 0.00 | 0.00 | 0.00 | 58 | 1009.2 |
| 20260503020012 | 74 | 328 | 4.3 | 0.0 | 0.00 | 0.00 | 0.00 | 55 | 1009.2 |
| 20260503014553 | 74 | 342 | 4.3 | 0.0 | 0.00 | 0.00 | 0.00 | 57 | 1009.2 |
| 20260503013044 | 74 | 345 | 6.1 | 0.0 | 0.00 | 0.00 | 0.00 | 55 | 1009.2 |
| 20260503011510 | 75 | 334 | 6.1 | 0.0 | 0.00 | 0.00 | 0.00 | 56 | 1009.2 |
| 20260503010035 | 74 | 309 | 5.2 | 0.0 | 0.00 | 0.00 | 0.00 | 58 | 1009.2 |
| 20260503004548 | 75 | 309 | 4.3 | 0.0 | 0.00 | 0.00 | 0.00 | 58 | 1009.4 |
| 20260503003002 | 75 | 336 | 5.2 | 0.0 | 0.00 | 0.00 | 0.00 | 59 | 1009.4 |
| 20260503001533 | 75 | 360 | 4.3 | 0.0 | 0.00 | 0.00 | 0.00 | 57 | 1009.3 |
| 20260503000051 | 75 | 337 | 6.1 | 0.0 | 0.00 | 0.00 | 0.00 | 58 | 1009.5 |
| 20260502234501 | 75 | 337 | 7.0 | 0.0 | 0.00 | 0.00 | 0.00 | 57 | 1009.6 |
| 20260502233021 | 74 | 326 | 6.1 | 0.0 | 0.00 | 0.00 | 0.00 | 54 | 1009.9 |
| 20260502231546 | 74 | 317 | 5.2 | 0.0 | 0.00 | 0.00 | 0.00 | 55 | 1010.1 |
| 20260502230105 | 74 | 11 | 5.2 | 0.0 | 0.00 | 0.00 | 0.00 | 55 | 1010.3 |
| 20260502224541 | 73 | 266 | 4.3 | 0.0 | 0.00 | 0.00 | 0.00 | 56 | 1010.6 |